sensor_id;sensor_type;location;lat;lon;timestamp;pressure;altitude;pressure_sealevel;temperature;humidity
59873;BME280;50750;51.636;4.948;2023-11-22T00:02:02;102906.77;;;13.71;64.79
59873;BME280;50750;51.636;4.948;2023-11-22T00:04:29;102904.30;;;13.71;64.76
59873;BME280;50750;51.636;4.948;2023-11-22T00:06:55;102904.83;;;13.70;64.67
59873;BME280;50750;51.636;4.948;2023-11-22T00:09:22;102909.06;;;13.71;64.84
59873;BME280;50750;51.636;4.948;2023-11-22T00:11:49;102908.71;;;13.70;64.78
59873;BME280;50750;51.636;4.948;2023-11-22T00:14:16;102908.00;;;13.69;64.62
59873;BME280;50750;51.636;4.948;2023-11-22T00:16:42;102911.35;;;13.69;64.75
59873;BME280;50750;51.636;4.948;2023-11-22T00:19:09;102909.44;;;13.68;64.79
59873;BME280;50750;51.636;4.948;2023-11-22T00:21:35;102911.91;;;13.67;64.67
59873;BME280;50750;51.636;4.948;2023-11-22T00:24:02;102911.38;;;13.67;64.78
59873;BME280;50750;51.636;4.948;2023-11-22T00:26:28;102911.91;;;13.67;64.63
59873;BME280;50750;51.636;4.948;2023-11-22T00:28:54;102908.03;;;13.67;64.57
59873;BME280;50750;51.636;4.948;2023-11-22T00:31:21;102913.84;;;13.68;64.63
59873;BME280;50750;51.636;4.948;2023-11-22T00:33:47;102916.14;;;13.67;64.80
59873;BME280;50750;51.636;4.948;2023-11-22T00:36:13;102913.69;;;13.66;64.56
59873;BME280;50750;51.636;4.948;2023-11-22T00:38:40;102913.67;;;13.66;64.56
59873;BME280;50750;51.636;4.948;2023-11-22T00:41:06;102916.50;;;13.66;64.66
59873;BME280;50750;51.636;4.948;2023-11-22T00:43:33;102916.85;;;13.66;64.77
59873;BME280;50750;51.636;4.948;2023-11-22T00:46:00;102913.68;;;13.65;64.70
59873;BME280;50750;51.636;4.948;2023-11-22T00:48:27;102912.64;;;13.64;64.72
59873;BME280;50750;51.636;4.948;2023-11-22T00:50:54;102912.66;;;13.64;64.51
59873;BME280;50750;51.636;4.948;2023-11-22T00:53:20;102915.48;;;13.63;64.67
59873;BME280;50750;51.636;4.948;2023-11-22T00:55:47;102914.60;;;13.62;64.64
59873;BME280;50750;51.636;4.948;2023-11-22T00:58:13;102913.90;;;13.63;64.57
59873;BME280;50750;51.636;4.948;2023-11-22T01:00:40;102914.24;;;13.63;64.57
59873;BME280;50750;51.636;4.948;2023-11-22T01:03:07;102915.13;;;13.63;64.60
59873;BME280;50750;51.636;4.948;2023-11-22T01:05:37;102918.66;;;13.62;64.53
59873;BME280;50750;51.636;4.948;2023-11-22T01:08:04;102923.75;;;13.62;64.47
59873;BME280;50750;51.636;4.948;2023-11-22T01:10:31;102929.56;;;13.62;64.52
59873;BME280;50750;51.636;4.948;2023-11-22T01:12:57;102941.71;;;13.63;64.49
59873;BME280;50750;51.636;4.948;2023-11-22T01:15:24;102954.55;;;13.62;64.51
59873;BME280;50750;51.636;4.948;2023-11-22T01:17:51;102960.00;;;13.62;64.47
59873;BME280;50750;51.636;4.948;2023-11-22T01:20:17;102967.77;;;13.61;64.56
59873;BME280;50750;51.636;4.948;2023-11-22T01:22:45;102971.84;;;13.60;64.47
59873;BME280;50750;51.636;4.948;2023-11-22T01:25:11;102975.54;;;13.60;64.60
59873;BME280;50750;51.636;4.948;2023-11-22T01:27:37;102983.80;;;13.60;64.43
59873;BME280;50750;51.636;4.948;2023-11-22T01:30:05;102982.40;;;13.58;64.53
59873;BME280;50750;51.636;4.948;2023-11-22T01:32:33;102989.96;;;13.59;64.34
59873;BME280;50750;51.636;4.948;2023-11-22T01:35:01;102986.96;;;13.59;64.31
59873;BME280;50750;51.636;4.948;2023-11-22T01:37:27;102993.48;;;13.59;64.32
59873;BME280;50750;51.636;4.948;2023-11-22T01:39:54;102993.48;;;13.59;64.44
59873;BME280;50750;51.636;4.948;2023-11-22T01:42:20;102994.18;;;13.59;64.45
59873;BME280;50750;51.636;4.948;2023-11-22T01:44:47;102992.24;;;13.59;64.47
59873;BME280;50750;51.636;4.948;2023-11-22T01:47:14;102995.77;;;13.59;64.52
59873;BME280;50750;51.636;4.948;2023-11-22T01:49:41;102997.55;;;13.57;64.58
59873;BME280;50750;51.636;4.948;2023-11-22T01:52:07;102995.80;;;13.57;64.29
59873;BME280;50750;51.636;4.948;2023-11-22T01:54:34;102998.80;;;13.56;64.42
59873;BME280;50750;51.636;4.948;2023-11-22T01:57:01;102999.34;;;13.55;64.35
59873;BME280;50750;51.636;4.948;2023-11-22T01:59:29;102994.23;;;13.55;64.36
59873;BME280;50750;51.636;4.948;2023-11-22T02:01:56;102997.05;;;13.54;64.44
59873;BME280;50750;51.636;4.948;2023-11-22T02:04:22;102991.60;;;13.54;64.46
59873;BME280;50750;51.636;4.948;2023-11-22T02:06:50;102993.18;;;13.54;64.41
59873;BME280;50750;51.636;4.948;2023-11-22T02:09:17;102996.17;;;13.54;64.53
59873;BME280;50750;51.636;4.948;2023-11-22T02:11:44;103002.50;;;13.54;64.37
59873;BME280;50750;51.636;4.948;2023-11-22T02:14:15;103002.52;;;13.53;64.42
59873;BME280;50750;51.636;4.948;2023-11-22T02:16:42;103000.41;;;13.54;64.44
59873;BME280;50750;51.636;4.948;2023-11-22T02:19:14;103000.05;;;13.53;64.27
59873;BME280;50750;51.636;4.948;2023-11-22T02:21:42;103006.57;;;13.53;64.45
59873;BME280;50750;51.636;4.948;2023-11-22T02:24:09;103011.33;;;13.52;64.54
59873;BME280;50750;51.636;4.948;2023-11-22T02:26:37;103013.27;;;13.52;64.27
59873;BME280;50750;51.636;4.948;2023-11-22T02:29:04;103013.80;;;13.52;64.30
59873;BME280;50750;51.636;4.948;2023-11-22T02:31:31;103019.42;;;13.51;64.21
59873;BME280;50750;51.636;4.948;2023-11-22T02:33:57;103020.33;;;13.50;64.38
59873;BME280;50750;51.636;4.948;2023-11-22T02:36:24;103021.21;;;13.50;64.38
59873;BME280;50750;51.636;4.948;2023-11-22T02:38:51;103022.27;;;13.49;64.26
59873;BME280;50750;51.636;4.948;2023-11-22T02:41:17;103020.52;;;13.50;64.23
59873;BME280;50750;51.636;4.948;2023-11-22T02:43:44;103005.55;;;13.50;64.42
59873;BME280;50750;51.636;4.948;2023-11-22T02:46:12;102999.20;;;13.49;64.34
59873;BME280;50750;51.636;4.948;2023-11-22T02:48:38;102999.04;;;13.50;64.18
59873;BME280;50750;51.636;4.948;2023-11-22T02:51:05;103003.26;;;13.50;64.20
59873;BME280;50750;51.636;4.948;2023-11-22T02:53:33;102998.67;;;13.49;64.33
59873;BME280;50750;51.636;4.948;2023-11-22T02:56:00;102999.91;;;13.49;64.17
59873;BME280;50750;51.636;4.948;2023-11-22T02:58:29;103002.91;;;13.48;64.30
59873;BME280;50750;51.636;4.948;2023-11-22T03:00:55;103004.85;;;13.47;64.21
59873;BME280;50750;51.636;4.948;2023-11-22T03:03:23;103009.10;;;13.46;64.22
59873;BME280;50750;51.636;4.948;2023-11-22T03:05:50;103011.02;;;13.46;64.07
59873;BME280;50750;51.636;4.948;2023-11-22T03:08:16;103009.63;;;13.44;64.19
59873;BME280;50750;51.636;4.948;2023-11-22T03:10:43;103009.46;;;13.44;64.26
59873;BME280;50750;51.636;4.948;2023-11-22T03:13:09;103012.11;;;13.43;64.33
59873;BME280;50750;51.636;4.948;2023-11-22T03:15:36;103013.51;;;13.43;64.28
59873;BME280;50750;51.636;4.948;2023-11-22T03:18:02;103004.01;;;13.44;64.32
59873;BME280;50750;51.636;4.948;2023-11-22T03:20:30;103001.89;;;13.44;64.35
59873;BME280;50750;51.636;4.948;2023-11-22T03:22:59;103007.71;;;13.43;64.07
59873;BME280;50750;51.636;4.948;2023-11-22T03:25:26;103013.70;;;13.43;64.18
59873;BME280;50750;51.636;4.948;2023-11-22T03:27:53;103020.20;;;13.42;64.24
59873;BME280;50750;51.636;4.948;2023-11-22T03:30:19;103021.44;;;13.42;64.17
59873;BME280;50750;51.636;4.948;2023-11-22T03:32:46;103015.46;;;13.41;64.17
59873;BME280;50750;51.636;4.948;2023-11-22T03:35:12;103014.41;;;13.41;64.04
59873;BME280;50750;51.636;4.948;2023-11-22T03:37:39;103018.98;;;13.40;64.17
59873;BME280;50750;51.636;4.948;2023-11-22T03:40:06;103023.91;;;13.40;64.22
59873;BME280;50750;51.636;4.948;2023-11-22T03:42:32;103034.84;;;13.39;64.23
59873;BME280;50750;51.636;4.948;2023-11-22T03:44:59;103040.65;;;13.38;64.12
59873;BME280;50750;51.636;4.948;2023-11-22T03:47:25;103040.11;;;13.37;64.23
59873;BME280;50750;51.636;4.948;2023-11-22T03:49:52;103047.70;;;13.37;64.19
59873;BME280;50750;51.636;4.948;2023-11-22T03:52:18;103061.95;;;13.37;64.25
59873;BME280;50750;51.636;4.948;2023-11-22T03:54:45;103072.67;;;13.38;64.22
59873;BME280;50750;51.636;4.948;2023-11-22T03:57:11;103080.08;;;13.39;64.29
59873;BME280;50750;51.636;4.948;2023-11-22T03:59:37;103085.52;;;13.38;64.19
59873;BME280;50750;51.636;4.948;2023-11-22T04:02:06;103086.92;;;13.37;64.14
59873;BME280;50750;51.636;4.948;2023-11-22T04:04:33;103080.42;;;13.37;64.16
59873;BME280;50750;51.636;4.948;2023-11-22T04:07:00;103082.19;;;13.37;64.04
59873;BME280;50750;51.636;4.948;2023-11-22T04:09:26;103085.89;;;13.36;64.21
59873;BME280;50750;51.636;4.948;2023-11-22T04:11:52;103088.89;;;13.35;64.05
59873;BME280;50750;51.636;4.948;2023-11-22T04:14:19;103092.23;;;13.35;64.03
59873;BME280;50750;51.636;4.948;2023-11-22T04:16:47;103091.89;;;13.34;64.21
59873;BME280;50750;51.636;4.948;2023-11-22T04:19:14;103088.55;;;13.33;64.03
59873;BME280;50750;51.636;4.948;2023-11-22T04:21:40;103090.31;;;13.32;64.09
59873;BME280;50750;51.636;4.948;2023-11-22T04:24:07;103094.19;;;13.31;64.21
59873;BME280;50750;51.636;4.948;2023-11-22T04:26:34;103102.65;;;13.31;64.06
59873;BME280;50750;51.636;4.948;2023-11-22T04:29:00;103105.28;;;13.31;64.00
59873;BME280;50750;51.636;4.948;2023-11-22T04:31:26;103110.90;;;13.31;63.97
59873;BME280;50750;51.636;4.948;2023-11-22T04:33:53;103114.95;;;13.31;64.20
59873;BME280;50750;51.636;4.948;2023-11-22T04:36:20;103115.48;;;13.31;64.01
59873;BME280;50750;51.636;4.948;2023-11-22T04:38:47;103112.84;;;13.31;64.00
59873;BME280;50750;51.636;4.948;2023-11-22T04:41:15;103112.33;;;13.31;63.89
59873;BME280;50750;51.636;4.948;2023-11-22T04:43:42;103110.21;;;13.31;63.99
59873;BME280;50750;51.636;4.948;2023-11-22T04:46:11;103114.42;;;13.30;63.92
59873;BME280;50750;51.636;4.948;2023-11-22T04:48:37;103114.08;;;13.29;64.04
59873;BME280;50750;51.636;4.948;2023-11-22T04:51:06;103117.60;;;13.29;63.96
59873;BME280;50750;51.636;4.948;2023-11-22T04:53:33;103119.02;;;13.27;64.12
59873;BME280;50750;51.636;4.948;2023-11-22T04:55:59;103127.82;;;13.28;64.02
59873;BME280;50750;51.636;4.948;2023-11-22T04:58:28;103127.11;;;13.26;64.09
59873;BME280;50750;51.636;4.948;2023-11-22T05:00:54;103125.52;;;13.25;64.07
59873;BME280;50750;51.636;4.948;2023-11-22T05:03:20;103125.69;;;13.25;64.05
59873;BME280;50750;51.636;4.948;2023-11-22T05:05:47;103120.59;;;13.25;64.08
59873;BME280;50750;51.636;4.948;2023-11-22T05:08:14;103122.52;;;13.25;64.09
59873;BME280;50750;51.636;4.948;2023-11-22T05:10:40;103119.19;;;13.25;63.92
59873;BME280;50750;51.636;4.948;2023-11-22T05:13:07;103117.07;;;13.25;63.91
59873;BME280;50750;51.636;4.948;2023-11-22T05:15:33;103119.54;;;13.25;64.10
59873;BME280;50750;51.636;4.948;2023-11-22T05:18:00;103116.38;;;13.25;63.92
59873;BME280;50750;51.636;4.948;2023-11-22T05:20:28;103111.79;;;13.25;64.23
59873;BME280;50750;51.636;4.948;2023-11-22T05:22:54;103112.32;;;13.25;63.92
59873;BME280;50750;51.636;4.948;2023-11-22T05:25:20;103111.09;;;13.24;63.92
59873;BME280;50750;51.636;4.948;2023-11-22T05:27:47;103108.10;;;13.24;64.00
59873;BME280;50750;51.636;4.948;2023-11-22T05:30:13;103107.22;;;13.23;64.01
59873;BME280;50750;51.636;4.948;2023-11-22T05:32:41;103114.44;;;13.23;63.93
59873;BME280;50750;51.636;4.948;2023-11-22T05:35:08;103115.85;;;13.22;64.05
59873;BME280;50750;51.636;4.948;2023-11-22T05:37:36;103113.39;;;13.21;64.08
59873;BME280;50750;51.636;4.948;2023-11-22T05:40:04;103115.85;;;13.20;64.05
59873;BME280;50750;51.636;4.948;2023-11-22T05:42:31;103109.00;;;13.20;64.08
59873;BME280;50750;51.636;4.948;2023-11-22T05:44:58;103103.55;;;13.20;64.08
59873;BME280;50750;51.636;4.948;2023-11-22T05:47:24;103108.13;;;13.20;63.99
59873;BME280;50750;51.636;4.948;2023-11-22T05:49:51;103117.09;;;13.20;63.97
59873;BME280;50750;51.636;4.948;2023-11-22T05:52:18;103129.94;;;13.20;64.16
59873;BME280;50750;51.636;4.948;2023-11-22T05:54:46;103138.20;;;13.20;64.02
59873;BME280;50750;51.636;4.948;2023-11-22T05:57:13;103140.66;;;13.20;63.99
59873;BME280;50750;51.636;4.948;2023-11-22T05:59:39;103128.35;;;13.20;63.92
59873;BME280;50750;51.636;4.948;2023-11-22T06:02:06;103129.58;;;13.19;63.97
59873;BME280;50750;51.636;4.948;2023-11-22T06:04:32;103130.28;;;13.19;64.07
59873;BME280;50750;51.636;4.948;2023-11-22T06:06:59;103131.52;;;13.19;64.09
59873;BME280;50750;51.636;4.948;2023-11-22T06:09:25;103137.16;;;13.18;63.91
59873;BME280;50750;51.636;4.948;2023-11-22T06:11:51;103149.30;;;13.17;64.00
59873;BME280;50750;51.636;4.948;2023-11-22T06:14:18;103149.83;;;13.16;63.88
59873;BME280;50750;51.636;4.948;2023-11-22T06:16:46;103152.66;;;13.15;63.97
59873;BME280;50750;51.636;4.948;2023-11-22T06:19:13;103148.63;;;13.14;64.22
59873;BME280;50750;51.636;4.948;2023-11-22T06:21:39;103153.02;;;13.14;63.96
59873;BME280;50750;51.636;4.948;2023-11-22T06:24:06;103151.60;;;13.15;64.08
59873;BME280;50750;51.636;4.948;2023-11-22T06:26:34;103156.52;;;13.15;63.98
59873;BME280;50750;51.636;4.948;2023-11-22T06:29:01;103164.25;;;13.15;63.94
59873;BME280;50750;51.636;4.948;2023-11-22T06:31:29;103161.61;;;13.15;63.96
59873;BME280;50750;51.636;4.948;2023-11-22T06:33:55;103162.67;;;13.16;63.90
59873;BME280;50750;51.636;4.948;2023-11-22T06:36:21;103169.53;;;13.16;64.04
59873;BME280;50750;51.636;4.948;2023-11-22T06:38:48;103171.47;;;13.15;63.96
59873;BME280;50750;51.636;4.948;2023-11-22T06:41:14;103172.52;;;13.15;63.89
59873;BME280;50750;51.636;4.948;2023-11-22T06:43:41;103167.61;;;13.15;64.05
59873;BME280;50750;51.636;4.948;2023-11-22T06:46:08;103166.20;;;13.14;63.90
59873;BME280;50750;51.636;4.948;2023-11-22T06:48:34;103165.49;;;13.13;63.93
59873;BME280;50750;51.636;4.948;2023-11-22T06:51:00;103158.12;;;13.12;64.05
59873;BME280;50750;51.636;4.948;2023-11-22T06:53:27;103149.33;;;13.11;63.86
59873;BME280;50750;51.636;4.948;2023-11-22T06:55:53;103147.92;;;13.10;64.11
59873;BME280;50750;51.636;4.948;2023-11-22T06:58:20;103145.11;;;13.10;63.97
59873;BME280;50750;51.636;4.948;2023-11-22T07:00:46;103143.17;;;13.10;63.99
59873;BME280;50750;51.636;4.948;2023-11-22T07:03:13;103145.29;;;13.10;63.90
59873;BME280;50750;51.636;4.948;2023-11-22T07:05:40;103139.48;;;13.10;64.04
59873;BME280;50750;51.636;4.948;2023-11-22T07:08:07;103140.34;;;13.11;64.14
59873;BME280;50750;51.636;4.948;2023-11-22T07:10:34;103140.34;;;13.11;63.99
59873;BME280;50750;51.636;4.948;2023-11-22T07:13:00;103134.37;;;13.11;64.02
59873;BME280;50750;51.636;4.948;2023-11-22T07:15:28;103133.67;;;13.10;63.88
59873;BME280;50750;51.636;4.948;2023-11-22T07:17:54;103131.57;;;13.09;64.00
59873;BME280;50750;51.636;4.948;2023-11-22T07:20:21;103144.76;;;13.10;63.98
59873;BME280;50750;51.636;4.948;2023-11-22T07:22:47;103157.24;;;13.09;63.86
59873;BME280;50750;51.636;4.948;2023-11-22T07:25:21;103159.89;;;13.09;64.06
59873;BME280;50750;51.636;4.948;2023-11-22T07:27:51;103161.48;;;13.09;63.94
59873;BME280;50750;51.636;4.948;2023-11-22T07:30:19;103154.61;;;13.09;64.01
59873;BME280;50750;51.636;4.948;2023-11-22T07:32:46;103159.36;;;13.08;63.95
59873;BME280;50750;51.636;4.948;2023-11-22T07:35:12;103154.09;;;13.05;62.69
59873;BME280;50750;51.636;4.948;2023-11-22T07:37:39;103154.27;;;13.04;62.75
59873;BME280;50750;51.636;4.948;2023-11-22T07:40:08;103148.14;;;13.03;62.86
59873;BME280;50750;51.636;4.948;2023-11-22T07:42:36;103145.48;;;13.02;63.20
59873;BME280;50750;51.636;4.948;2023-11-22T07:45:02;103148.48;;;13.02;63.37
59873;BME280;50750;51.636;4.948;2023-11-22T07:47:29;103152.70;;;13.02;63.41
59873;BME280;50750;51.636;4.948;2023-11-22T07:49:56;103161.13;;;13.02;63.33
59873;BME280;50750;51.636;4.948;2023-11-22T07:52:23;103166.59;;;13.02;63.56
59873;BME280;50750;51.636;4.948;2023-11-22T07:54:56;103181.73;;;13.03;63.49
59873;BME280;50750;51.636;4.948;2023-11-22T07:57:23;103192.45;;;13.03;63.63
59873;BME280;50750;51.636;4.948;2023-11-22T07:59:49;103195.96;;;13.04;63.47
59873;BME280;50750;51.636;4.948;2023-11-22T08:02:16;103202.47;;;13.04;63.39
59873;BME280;50750;51.636;4.948;2023-11-22T08:04:45;103197.38;;;13.04;63.48
59873;BME280;50750;51.636;4.948;2023-11-22T08:07:11;103197.20;;;13.04;63.66
59873;BME280;50750;51.636;4.948;2023-11-22T08:09:41;103196.32;;;13.04;63.57
59873;BME280;50750;51.636;4.948;2023-11-22T08:12:07;103201.59;;;13.03;63.68
59873;BME280;50750;51.636;4.948;2023-11-22T08:14:34;103201.78;;;13.03;63.60
59873;BME280;50750;51.636;4.948;2023-11-22T08:17:01;103203.37;;;13.03;63.63
59873;BME280;50750;51.636;4.948;2023-11-22T08:19:28;103211.79;;;13.02;63.85
59873;BME280;50750;51.636;4.948;2023-11-22T08:21:55;103221.30;;;13.02;63.73
59873;BME280;50750;51.636;4.948;2023-11-22T08:24:21;103227.80;;;13.01;63.60
59873;BME280;50750;51.636;4.948;2023-11-22T08:26:48;103226.92;;;13.01;63.71
59873;BME280;50750;51.636;4.948;2023-11-22T08:29:14;103227.98;;;13.02;63.72
59873;BME280;50750;51.636;4.948;2023-11-22T08:31:42;103221.64;;;13.02;63.58
59873;BME280;50750;51.636;4.948;2023-11-22T08:34:08;103218.31;;;13.03;63.69
59873;BME280;50750;51.636;4.948;2023-11-22T08:36:35;103213.38;;;13.04;63.62
59873;BME280;50750;51.636;4.948;2023-11-22T08:39:02;103215.48;;;13.03;63.76
59873;BME280;50750;51.636;4.948;2023-11-22T08:41:30;103223.92;;;13.04;63.57
59873;BME280;50750;51.636;4.948;2023-11-22T08:43:58;103231.30;;;13.05;63.80
59873;BME280;50750;51.636;4.948;2023-11-22T08:46:24;103231.48;;;13.04;63.66
59873;BME280;50750;51.636;4.948;2023-11-22T08:48:51;103236.06;;;13.04;63.70
59873;BME280;50750;51.636;4.948;2023-11-22T08:51:17;103240.45;;;13.05;63.71
59873;BME280;50750;51.636;4.948;2023-11-22T08:53:44;103243.45;;;13.04;63.69
59873;BME280;50750;51.636;4.948;2023-11-22T08:56:11;103245.92;;;13.04;63.89
59873;BME280;50750;51.636;4.948;2023-11-22T08:58:38;103245.05;;;13.03;63.73
59873;BME280;50750;51.636;4.948;2023-11-22T09:01:06;103238.17;;;13.02;63.75
59873;BME280;50750;51.636;4.948;2023-11-22T09:03:34;103231.48;;;13.03;63.83
59873;BME280;50750;51.636;4.948;2023-11-22T09:06:00;103224.11;;;13.03;63.62
59873;BME280;50750;51.636;4.948;2023-11-22T09:08:29;103227.09;;;13.04;63.73
59873;BME280;50750;51.636;4.948;2023-11-22T09:10:56;103227.95;;;13.05;63.74
59873;BME280;50750;51.636;4.948;2023-11-22T09:13:22;103233.77;;;13.06;63.86
59873;BME280;50750;51.636;4.948;2023-11-22T09:15:49;103234.13;;;13.06;63.80
59873;BME280;50750;51.636;4.948;2023-11-22T09:18:16;103232.37;;;13.06;63.77
59873;BME280;50750;51.636;4.948;2023-11-22T09:20:42;103234.13;;;13.06;63.86
59873;BME280;50750;51.636;4.948;2023-11-22T09:23:12;103235.88;;;13.06;63.91
59873;BME280;50750;51.636;4.948;2023-11-22T09:25:40;103242.04;;;13.05;63.92
59873;BME280;50750;51.636;4.948;2023-11-22T09:28:06;103242.73;;;13.05;63.86
59873;BME280;50750;51.636;4.948;2023-11-22T09:30:35;103237.98;;;13.04;63.81
59873;BME280;50750;51.636;4.948;2023-11-22T09:33:07;103239.77;;;13.04;63.73
59873;BME280;50750;51.636;4.948;2023-11-22T09:35:35;103247.68;;;13.03;63.84
59873;BME280;50750;51.636;4.948;2023-11-22T09:38:07;103247.68;;;13.03;63.89
59873;BME280;50750;51.636;4.948;2023-11-22T09:40:42;103248.73;;;13.02;63.97
59873;BME280;50750;51.636;4.948;2023-11-22T09:43:10;103249.95;;;13.02;63.89
59873;BME280;50750;51.636;4.948;2023-11-22T09:45:37;103248.90;;;13.02;63.77
59873;BME280;50750;51.636;4.948;2023-11-22T09:50:59;103249.79;;;13.03;63.87
59873;BME280;50750;51.636;4.948;2023-11-22T09:54:00;103259.30;;;13.03;63.90
59873;BME280;50750;51.636;4.948;2023-11-22T09:56:33;103257.00;;;13.02;63.87
59873;BME280;50750;51.636;4.948;2023-11-22T09:59:00;103250.15;;;13.03;63.85
59873;BME280;50750;51.636;4.948;2023-11-22T10:01:30;103251.89;;;13.02;63.59
59873;BME280;50750;51.636;4.948;2023-11-22T10:04:03;103255.41;;;13.02;63.78
59873;BME280;50750;51.636;4.948;2023-11-22T10:06:32;103256.12;;;13.01;63.88
59873;BME280;50750;51.636;4.948;2023-11-22T10:09:03;103256.30;;;13.01;63.81
59873;BME280;50750;51.636;4.948;2023-11-22T10:11:37;103257.38;;;13.00;63.91
59873;BME280;50750;51.636;4.948;2023-11-22T10:14:05;103255.59;;;13.00;63.93
59873;BME280;50750;51.636;4.948;2023-11-22T10:16:31;103253.14;;;12.99;63.97
59873;BME280;50750;51.636;4.948;2023-11-22T10:18:58;103250.15;;;12.98;63.65
59873;BME280;50750;51.636;4.948;2023-11-22T10:21:26;103252.78;;;12.97;63.77
59873;BME280;50750;51.636;4.948;2023-11-22T10:23:55;103253.67;;;12.97;63.89
59873;BME280;50750;51.636;4.948;2023-11-22T10:26:23;103254.90;;;12.98;63.81
59873;BME280;50750;51.636;4.948;2023-11-22T10:28:51;103251.91;;;12.99;63.85
59873;BME280;50750;51.636;4.948;2023-11-22T10:31:19;103241.00;;;13.00;63.64
59873;BME280;50750;51.636;4.948;2023-11-22T10:33:48;103233.97;;;13.00;63.80
59873;BME280;50750;51.636;4.948;2023-11-22T10:36:16;103228.33;;;13.00;63.62
59873;BME280;50750;51.636;4.948;2023-11-22T10:38:46;103237.84;;;13.00;63.70
59873;BME280;50750;51.636;4.948;2023-11-22T10:41:13;103239.06;;;13.00;63.78
59873;BME280;50750;51.636;4.948;2023-11-22T10:43:40;103229.39;;;12.99;63.86
59873;BME280;50750;51.636;4.948;2023-11-22T10:46:08;103221.13;;;12.99;63.76
59873;BME280;50750;51.636;4.948;2023-11-22T10:48:38;103215.33;;;12.98;63.62
59873;BME280;50750;51.636;4.948;2023-11-22T10:51:06;103214.98;;;12.98;63.58
59873;BME280;50750;51.636;4.948;2023-11-22T10:53:36;103215.33;;;12.97;63.86
59873;BME280;50750;51.636;4.948;2023-11-22T10:56:07;103212.86;;;12.97;63.86
59873;BME280;50750;51.636;4.948;2023-11-22T10:58:48;103210.40;;;12.97;63.84
59873;BME280;50750;51.636;4.948;2023-11-22T11:01:24;103208.11;;;12.97;63.66
59873;BME280;50750;51.636;4.948;2023-11-22T11:04:09;103201.44;;;12.98;63.76
59873;BME280;50750;51.636;4.948;2023-11-22T11:06:38;103197.39;;;12.98;63.54
59873;BME280;50750;51.636;4.948;2023-11-22T11:09:06;103197.90;;;12.99;63.78
59873;BME280;50750;51.636;4.948;2023-11-22T11:11:36;103191.77;;;12.98;63.75
59873;BME280;50750;51.636;4.948;2023-11-22T11:14:03;103196.50;;;12.99;63.74
59873;BME280;50750;51.636;4.948;2023-11-22T11:16:33;103196.85;;;12.98;63.78
59873;BME280;50750;51.636;4.948;2023-11-22T11:19:04;103197.56;;;12.98;63.80
59873;BME280;50750;51.636;4.948;2023-11-22T11:21:34;103188.25;;;12.98;63.87
59873;BME280;50750;51.636;4.948;2023-11-22T11:24:00;103189.48;;;12.98;63.85
59873;BME280;50750;51.636;4.948;2023-11-22T11:26:32;103188.60;;;12.98;63.71
59873;BME280;50750;51.636;4.948;2023-11-22T11:29:01;103180.85;;;12.97;63.86
59873;BME280;50750;51.636;4.948;2023-11-22T11:31:34;103163.98;;;12.96;63.73
59873;BME280;50750;51.636;4.948;2023-11-22T11:34:06;103152.90;;;12.96;63.68
59873;BME280;50750;51.636;4.948;2023-11-22T11:36:33;103147.27;;;12.96;63.77
59873;BME280;50750;51.636;4.948;2023-11-22T11:39:01;103142.70;;;12.96;63.78
59873;BME280;50750;51.636;4.948;2023-11-22T11:41:31;103146.21;;;12.97;63.70
59873;BME280;50750;51.636;4.948;2023-11-22T11:44:02;103153.77;;;12.97;63.73
59873;BME280;50750;51.636;4.948;2023-11-22T11:46:30;103145.86;;;12.98;63.79
59873;BME280;50750;51.636;4.948;2023-11-22T11:48:56;103129.33;;;12.98;63.66
59873;BME280;50750;51.636;4.948;2023-11-22T11:51:27;103121.06;;;12.98;63.83
59873;BME280;50750;51.636;4.948;2023-11-22T11:53:55;103117.02;;;12.98;63.75
59873;BME280;50750;51.636;4.948;2023-11-22T11:56:22;103112.97;;;12.97;63.70
59873;BME280;50750;51.636;4.948;2023-11-22T11:58:50;103111.91;;;12.97;63.84
59873;BME280;50750;51.636;4.948;2023-11-22T12:01:17;103115.78;;;12.97;63.94
59873;BME280;50750;51.636;4.948;2023-11-22T12:03:46;103119.48;;;12.97;63.87
59873;BME280;50750;51.636;4.948;2023-11-22T12:06:16;103118.77;;;12.96;63.70
59873;BME280;50750;51.636;4.948;2023-11-22T12:08:44;103121.42;;;12.95;64.06
59873;BME280;50750;51.636;4.948;2023-11-22T12:11:11;103124.60;;;12.95;63.67
59873;BME280;50750;51.636;4.948;2023-11-22T12:13:38;103124.42;;;12.95;63.87
59873;BME280;50750;51.636;4.948;2023-11-22T12:16:06;103120.37;;;12.96;63.87
59873;BME280;50750;51.636;4.948;2023-11-22T12:21:08;103113.50;;;12.97;63.93
59873;BME280;50750;51.636;4.948;2023-11-22T12:23:40;103111.04;;;12.96;63.94
59873;BME280;50750;51.636;4.948;2023-11-22T12:26:14;103111.21;;;12.97;64.01
59873;BME280;50750;51.636;4.948;2023-11-22T12:28:42;103110.16;;;12.96;63.83
59873;BME280;50750;51.636;4.948;2023-11-22T12:31:12;103113.67;;;12.97;63.97
59873;BME280;50750;51.636;4.948;2023-11-22T12:33:43;103111.03;;;12.97;63.96
59873;BME280;50750;51.636;4.948;2023-11-22T12:36:10;103111.04;;;12.96;63.93
59873;BME280;50750;51.636;4.948;2023-11-22T12:38:40;103115.96;;;12.96;63.97
59873;BME280;50750;51.636;4.948;2023-11-22T12:41:07;103120.20;;;12.96;63.98
59873;BME280;50750;51.636;4.948;2023-11-22T12:43:34;103118.79;;;12.95;64.01
59873;BME280;50750;51.636;4.948;2023-11-22T12:46:05;103119.48;;;12.95;63.98
59873;BME280;50750;51.636;4.948;2023-11-22T12:48:39;103117.73;;;12.94;64.09
59873;BME280;50750;51.636;4.948;2023-11-22T12:51:15;103112.80;;;12.94;64.04
59873;BME280;50750;51.636;4.948;2023-11-22T12:53:45;103095.92;;;12.95;63.98
59873;BME280;50750;51.636;4.948;2023-11-22T12:56:12;103087.13;;;12.96;64.01
59873;BME280;50750;51.636;4.948;2023-11-22T12:58:39;103080.80;;;12.96;63.82